createdAt,value
2022-08-18T00:01:14.837Z,18.62
2022-08-18T00:03:52.991Z,18.62
2022-08-18T00:06:22.172Z,18.56
2022-08-18T00:08:48.684Z,18.54
2022-08-18T00:11:20.175Z,18.53
2022-08-18T00:13:46.848Z,18.53
2022-08-18T00:16:13.368Z,18.56
2022-08-18T00:18:39.867Z,18.56
2022-08-18T00:21:06.313Z,18.55
2022-08-18T00:23:33.684Z,18.57
2022-08-18T00:26:00.405Z,18.56
2022-08-18T00:28:26.894Z,18.52
2022-08-18T00:30:54.170Z,18.48
2022-08-18T00:33:23.999Z,18.47
2022-08-18T00:35:50.859Z,18.46
2022-08-18T00:38:24.926Z,18.44
2022-08-18T00:40:54.175Z,18.45
2022-08-18T00:43:36.025Z,18.45
2022-08-18T00:46:06.099Z,18.40
2022-08-18T00:48:32.764Z,18.38
2022-08-18T00:51:06.769Z,18.36
2022-08-18T00:53:45.800Z,18.36
2022-08-18T00:56:43.946Z,18.39
2022-08-18T00:59:16.814Z,18.37
2022-08-18T01:01:45.583Z,18.37
2022-08-18T01:04:20.718Z,18.36
2022-08-18T01:07:05.081Z,18.37
2022-08-18T01:09:32.931Z,18.34
2022-08-18T01:11:59.372Z,18.27
2022-08-18T01:14:27.077Z,18.25
2022-08-18T01:17:12.143Z,18.23
2022-08-18T01:19:57.499Z,18.25
2022-08-18T01:22:47.765Z,18.30
2022-08-18T01:25:38.815Z,18.28
2022-08-18T01:28:06.127Z,18.29
2022-08-18T01:30:46.371Z,18.31
2022-08-18T01:33:12.944Z,18.31
2022-08-18T01:35:43.175Z,18.27
2022-08-18T01:38:09.843Z,18.27
2022-08-18T01:41:11.177Z,18.26
2022-08-18T01:43:22.932Z,18.27
2022-08-18T01:45:49.564Z,18.28
2022-08-18T01:48:16.797Z,18.29
2022-08-18T01:50:45.529Z,18.29
2022-08-18T01:53:12.232Z,18.25
2022-08-18T01:55:44.638Z,18.27
2022-08-18T01:58:12.204Z,18.27
2022-08-18T02:00:38.837Z,18.28
2022-08-18T02:03:09.290Z,18.27
2022-08-18T02:05:39.914Z,18.26
2022-08-18T02:08:07.633Z,18.24
2022-08-18T02:10:34.445Z,18.24
2022-08-18T02:13:01.968Z,18.22
2022-08-18T02:15:28.512Z,18.21
2022-08-18T02:17:55.055Z,18.21
2022-08-18T02:20:21.772Z,18.20
2022-08-18T02:22:49.132Z,18.18
2022-08-18T02:25:17.215Z,18.15
2022-08-18T02:27:44.334Z,18.14
2022-08-18T02:30:14.966Z,18.13
2022-08-18T02:32:42.326Z,18.07
2022-08-18T02:35:11.679Z,18.09
2022-08-18T02:37:42.168Z,18.09
2022-08-18T02:40:15.221Z,18.07
2022-08-18T02:42:42.857Z,18.05
2022-08-18T02:45:10.124Z,18.05
2022-08-18T02:47:36.617Z,18.02
2022-08-18T02:50:03.535Z,18.00
2022-08-18T02:52:33.009Z,18.02
2022-08-18T02:55:03.422Z,18.00
2022-08-18T02:57:31.063Z,17.99
2022-08-18T02:59:57.958Z,18.00
2022-08-18T03:02:26.633Z,17.99
2022-08-18T03:04:53.340Z,18.00
2022-08-18T03:07:20.035Z,18.01
2022-08-18T03:09:46.532Z,18.00
2022-08-18T03:12:13.541Z,18.01
2022-08-18T03:14:40.128Z,17.99
2022-08-18T03:17:08.979Z,17.97
2022-08-18T03:19:36.557Z,17.98
2022-08-18T03:22:04.406Z,17.99
2022-08-18T03:24:50.802Z,18.01
2022-08-18T03:27:17.369Z,18.00
2022-08-18T03:29:43.854Z,18.02
2022-08-18T03:32:10.511Z,18.01
2022-08-18T03:34:37.060Z,18.03
2022-08-18T03:37:03.754Z,18.03
2022-08-18T03:39:30.315Z,18.03
2022-08-18T03:42:00.992Z,18.02
2022-08-18T03:44:34.164Z,17.99
2022-08-18T03:47:03.658Z,17.99
2022-08-18T03:49:32.612Z,17.96
2022-08-18T03:52:02.912Z,17.95
2022-08-18T03:54:32.436Z,17.98
2022-08-18T03:57:00.290Z,17.99
2022-08-18T03:59:27.325Z,18.00
2022-08-18T04:01:55.343Z,17.98
2022-08-18T04:04:27.734Z,17.98
2022-08-18T04:06:58.365Z,17.98
2022-08-18T04:09:27.975Z,17.93
2022-08-18T04:11:55.626Z,17.93
2022-08-18T04:14:24.926Z,17.94
2022-08-18T04:16:52.351Z,17.92
2022-08-18T04:19:26.198Z,17.91
2022-08-18T04:21:55.466Z,17.89
2022-08-18T04:24:22.030Z,17.91
2022-08-18T04:26:49.002Z,17.91
2022-08-18T04:29:18.158Z,17.92
2022-08-18T04:31:45.297Z,17.88
2022-08-18T04:34:12.391Z,17.90
2022-08-18T04:36:39.749Z,17.91
2022-08-18T04:39:08.412Z,17.92
2022-08-18T04:41:36.061Z,17.91
2022-08-18T04:44:05.924Z,17.92
2022-08-18T04:46:43.727Z,17.93
2022-08-18T04:49:11.961Z,17.93
2022-08-18T04:52:36.334Z,17.94
2022-08-18T04:54:29.659Z,17.95
2022-08-18T04:56:56.335Z,17.95
2022-08-18T04:59:22.953Z,17.91
2022-08-18T05:01:49.490Z,17.87
2022-08-18T05:04:17.921Z,17.84
2022-08-18T05:06:45.827Z,17.84
2022-08-18T05:09:16.401Z,17.86
2022-08-18T05:11:50.849Z,17.88
2022-08-18T05:14:18.686Z,17.91
2022-08-18T05:16:48.615Z,17.91
2022-08-18T05:19:19.248Z,17.92
2022-08-18T05:21:46.093Z,17.95
2022-08-18T05:24:17.928Z,17.94
2022-08-18T05:26:44.697Z,17.91
2022-08-18T05:29:18.548Z,17.91
2022-08-18T05:31:48.147Z,17.93
2022-08-18T05:34:15.422Z,17.93
2022-08-18T05:36:50.911Z,17.96
2022-08-18T05:39:41.446Z,17.97
2022-08-18T05:42:18.915Z,17.99
2022-08-18T05:44:49.042Z,18.06
2022-08-18T05:47:29.590Z,18.14
2022-08-18T05:49:58.587Z,18.20
2022-08-18T05:52:39.629Z,18.27
2022-08-18T05:55:32.133Z,18.31
2022-08-18T05:58:05.409Z,18.32
2022-08-18T06:00:33.541Z,18.34
2022-08-18T06:03:07.223Z,18.51
2022-08-18T06:05:40.815Z,18.62
2022-08-18T06:08:13.583Z,18.59
2022-08-18T06:10:46.203Z,18.60
2022-08-18T06:13:13.693Z,18.68
2022-08-18T06:15:59.158Z,18.76
2022-08-18T06:18:31.207Z,18.82
2022-08-18T06:21:21.314Z,18.87
2022-08-18T06:24:08.863Z,18.88
2022-08-18T06:26:50.667Z,19.07
2022-08-18T06:29:29.867Z,19.10
2022-08-18T06:32:01.181Z,19.05
2022-08-18T06:34:55.933Z,19.03
2022-08-18T06:38:09.856Z,19.08
2022-08-18T06:40:36.851Z,19.07
2022-08-18T06:43:07.605Z,19.14
2022-08-18T06:45:39.936Z,19.18
2022-08-18T06:48:15.928Z,19.22
2022-08-18T06:50:52.106Z,19.26
2022-08-18T06:53:27.943Z,19.27
2022-08-18T06:55:55.317Z,19.27
2022-08-18T06:58:27.009Z,19.28
2022-08-18T07:00:56.358Z,19.35
2022-08-18T07:03:41.236Z,19.39
2022-08-18T07:06:25.693Z,19.40
2022-08-18T07:08:54.823Z,19.40
2022-08-18T07:11:31.686Z,19.42
2022-08-18T07:14:21.106Z,19.41
2022-08-18T07:16:58.739Z,19.38
2022-08-18T07:19:30.604Z,19.39
2022-08-18T07:22:13.758Z,19.38
2022-08-18T07:24:50.852Z,19.47
2022-08-18T07:27:20.518Z,19.53
2022-08-18T07:30:24.886Z,19.67
2022-08-18T07:33:18.525Z,19.72
2022-08-18T07:35:51.667Z,19.84
2022-08-18T07:38:43.150Z,20.07
2022-08-18T07:41:20.578Z,20.27
2022-08-18T07:43:52.773Z,20.40
2022-08-18T07:46:29.460Z,20.53
2022-08-18T07:48:58.668Z,20.60
2022-08-18T07:51:49.787Z,20.74
2022-08-18T07:54:51.170Z,20.91
2022-08-18T07:58:02.570Z,21.02
2022-08-18T08:01:00.115Z,20.93
2022-08-18T08:03:45.892Z,20.97
2022-08-18T08:06:23.924Z,20.88
2022-08-18T08:09:17.714Z,20.82
2022-08-18T08:11:45.092Z,20.64
2022-08-18T08:14:29.888Z,20.49
2022-08-18T08:17:23.619Z,20.45
2022-08-18T08:20:00.637Z,20.40
2022-08-18T08:22:36.281Z,20.51
2022-08-18T08:28:29.921Z,20.50
2022-08-18T08:31:33.252Z,20.51
2022-08-18T08:34:34.529Z,20.68
2022-08-18T08:37:04.249Z,20.96
2022-08-18T08:39:39.679Z,21.24
2022-08-18T08:42:32.012Z,21.43
2022-08-18T08:45:06.655Z,21.50
2022-08-18T08:48:06.600Z,21.62
2022-08-18T08:50:45.315Z,21.67
2022-08-18T08:53:20.533Z,21.68
2022-08-18T08:55:50.916Z,21.85
2022-08-18T08:58:24.845Z,21.96
2022-08-18T09:00:52.900Z,21.99
2022-08-18T09:03:37.021Z,22.19
2022-08-18T09:06:24.061Z,22.07
2022-08-18T09:09:31.099Z,21.76
2022-08-18T09:12:09.772Z,21.52
2022-08-18T09:15:10.388Z,21.41
2022-08-18T09:18:10.840Z,21.31
2022-08-18T09:20:55.627Z,21.25
2022-08-18T09:23:32.873Z,21.18
2022-08-18T09:26:24.166Z,21.17
2022-08-18T09:28:57.908Z,21.15
2022-08-18T09:31:26.800Z,21.15
2022-08-18T09:34:21.732Z,21.45
2022-08-18T09:37:15.371Z,21.80
2022-08-18T09:40:18.756Z,22.03
2022-08-18T09:43:06.642Z,22.27
2022-08-18T09:46:04.710Z,22.44
2022-08-18T09:48:36.744Z,22.46
2022-08-18T09:54:13.470Z,22.17
2022-08-18T09:57:17.639Z,22.07
2022-08-18T09:59:47.096Z,22.03
2022-08-18T10:02:36.842Z,22.03
2022-08-18T10:05:16.024Z,21.96
2022-08-18T10:07:48.739Z,21.93
2022-08-18T10:11:00.446Z,21.93
2022-08-18T10:13:29.562Z,21.92
2022-08-18T10:16:10.908Z,21.92
2022-08-18T10:18:44.879Z,22.18
2022-08-18T10:21:20.955Z,22.24
2022-08-18T10:26:56.911Z,22.37
2022-08-18T10:29:29.709Z,22.64
2022-08-18T10:31:57.427Z,22.58
2022-08-18T10:40:30.449Z,22.27
2022-08-18T10:46:25.029Z,22.23
2022-08-18T10:49:25.973Z,22.27
2022-08-18T10:52:41.711Z,22.28
2022-08-18T10:55:24.186Z,22.35
2022-08-18T10:58:36.589Z,22.48
2022-08-18T11:01:05.794Z,22.56
2022-08-18T11:03:51.558Z,22.69
2022-08-18T11:06:27.037Z,22.82
2022-08-18T11:09:00.802Z,22.83
2022-08-18T11:11:53.457Z,22.82
2022-08-18T11:14:37.672Z,22.82
2022-08-18T11:17:43.328Z,22.83
2022-08-18T11:20:13.156Z,22.84
2022-08-18T11:22:50.280Z,22.89
2022-08-18T11:25:28.071Z,22.95
2022-08-18T11:27:56.453Z,22.92
2022-08-18T11:30:36.889Z,22.94
2022-08-18T11:33:05.674Z,23.07
2022-08-18T11:35:45.514Z,23.18
2022-08-18T11:38:23.293Z,23.26
2022-08-18T11:41:12.616Z,23.26
2022-08-18T11:43:43.188Z,23.17
2022-08-18T11:46:33.334Z,23.16
2022-08-18T11:49:15.881Z,23.15
2022-08-18T11:52:03.116Z,23.11
2022-08-18T11:54:39.232Z,23.11
2022-08-18T11:57:49.301Z,23.08
2022-08-18T12:00:42.550Z,23.10
2022-08-18T12:03:19.314Z,23.16
2022-08-18T12:05:56.305Z,23.20
2022-08-18T12:08:57.916Z,23.16
2022-08-18T12:11:26.756Z,23.19
2022-08-18T12:14:30.104Z,23.28
2022-08-18T12:17:02.157Z,23.25
2022-08-18T12:19:30.923Z,23.29
2022-08-18T12:21:59.622Z,23.36
2022-08-18T12:27:22.222Z,23.43
2022-08-18T12:29:55.710Z,23.55
2022-08-18T12:32:41.410Z,23.79
2022-08-18T12:35:13.029Z,24.01
2022-08-18T12:37:59.034Z,24.10
2022-08-18T12:40:27.141Z,24.30
2022-08-18T12:45:41.383Z,23.94
2022-08-18T12:48:08.496Z,23.71
2022-08-18T12:50:49.992Z,23.52
2022-08-18T12:53:29.422Z,23.33
2022-08-18T12:56:06.652Z,23.28
2022-08-18T12:58:36.451Z,23.24
2022-08-18T13:01:03.931Z,23.13
2022-08-18T13:03:30.501Z,23.05
2022-08-18T13:06:02.305Z,22.96
2022-08-18T13:08:30.531Z,22.87
2022-08-18T13:11:14.817Z,22.78
2022-08-18T13:13:52.657Z,22.72
2022-08-18T13:16:39.173Z,22.72
2022-08-18T13:19:10.916Z,22.68
2022-08-18T13:21:41.194Z,22.65
2022-08-18T13:24:09.475Z,22.72
2022-08-18T13:26:39.569Z,22.83
2022-08-18T13:29:10.276Z,22.89
2022-08-18T13:31:37.970Z,22.93
2022-08-18T13:34:11.890Z,22.94
2022-08-18T13:36:46.197Z,23.00
2022-08-18T13:39:16.274Z,22.98
2022-08-18T13:41:45.618Z,23.11
2022-08-18T13:44:13.517Z,23.29
2022-08-18T13:46:47.178Z,23.32
2022-08-18T13:49:23.909Z,23.29
2022-08-18T13:52:00.318Z,23.31
2022-08-18T13:54:35.243Z,23.35
2022-08-18T13:57:03.044Z,23.36
2022-08-18T13:59:34.059Z,23.35
2022-08-18T14:02:05.748Z,23.35
2022-08-18T14:04:36.158Z,23.33
2022-08-18T14:07:07.301Z,23.31
2022-08-18T14:09:38.139Z,23.31
2022-08-18T14:12:15.852Z,23.28
2022-08-18T14:14:53.352Z,23.32
2022-08-18T14:17:22.563Z,23.35
2022-08-18T14:20:10.453Z,23.35
2022-08-18T14:22:59.811Z,23.37
2022-08-18T14:25:45.376Z,23.35
2022-08-18T14:28:12.018Z,23.36
2022-08-18T14:30:38.769Z,23.41
2022-08-18T14:33:11.440Z,23.40
2022-08-18T14:36:06.272Z,23.43
2022-08-18T14:38:24.768Z,23.51
2022-08-18T14:40:51.593Z,23.62
2022-08-18T14:43:21.920Z,23.77
2022-08-18T14:45:53.621Z,23.76
2022-08-18T14:48:26.821Z,23.68
2022-08-18T14:50:55.393Z,23.65
2022-08-18T14:53:25.243Z,24.21
2022-08-18T14:55:53.347Z,24.71
2022-08-18T14:58:21.384Z,24.58
2022-08-18T15:00:54.002Z,24.46
2022-08-18T15:03:22.032Z,24.51
2022-08-18T15:05:58.326Z,24.98
2022-08-18T15:08:26.067Z,24.90
2022-08-18T15:10:54.424Z,24.52
2022-08-18T15:13:21.994Z,24.71
2022-08-18T15:15:53.587Z,24.52
2022-08-18T15:18:22.844Z,24.35
2022-08-18T15:21:35.708Z,24.19
2022-08-18T15:24:20.198Z,24.17
2022-08-18T15:26:51.683Z,24.75
2022-08-18T15:29:18.687Z,25.29
2022-08-18T15:31:50.685Z,26.30
2022-08-18T15:34:20.659Z,28.34
2022-08-18T15:36:47.853Z,29.96
2022-08-18T15:39:14.368Z,30.67
2022-08-18T15:41:49.166Z,28.97
2022-08-18T15:44:18.609Z,27.53
2022-08-18T15:46:51.400Z,26.67
2022-08-18T15:49:21.733Z,25.99
2022-08-18T15:51:49.659Z,25.57
2022-08-18T15:54:16.322Z,25.27
2022-08-18T15:56:46.306Z,24.94
2022-08-18T15:59:29.271Z,24.74
2022-08-18T16:02:05.417Z,24.51
2022-08-18T16:04:31.851Z,24.34
2022-08-18T16:06:58.305Z,24.22
2022-08-18T16:09:24.663Z,24.13
2022-08-18T16:11:51.113Z,24.05
2022-08-18T16:14:17.485Z,23.99
2022-08-18T16:16:43.923Z,23.98
2022-08-18T16:19:10.262Z,23.94
2022-08-18T16:21:40.054Z,23.86
2022-08-18T16:24:07.980Z,23.82
2022-08-18T16:26:34.388Z,23.79
2022-08-18T16:29:02.057Z,23.78
2022-08-18T16:31:29.333Z,23.77
2022-08-18T16:33:57.748Z,23.80
2022-08-18T16:36:25.620Z,23.79
2022-08-18T16:38:53.600Z,23.78
2022-08-18T16:41:20.786Z,23.76
2022-08-18T16:43:47.510Z,23.72
2022-08-18T16:46:18.162Z,23.69
2022-08-18T16:48:45.856Z,23.62
2022-08-18T16:51:14.455Z,23.61
2022-08-18T16:53:41.189Z,23.59
2022-08-18T16:56:13.043Z,23.63
2022-08-18T16:58:58.075Z,23.61
2022-08-18T17:01:54.254Z,23.61
2022-08-18T17:04:24.800Z,23.61
2022-08-18T17:06:51.725Z,23.53
2022-08-18T17:09:19.929Z,23.49
2022-08-18T17:11:48.081Z,23.55
2022-08-18T17:14:19.890Z,23.54
2022-08-18T17:16:49.414Z,23.55
2022-08-18T17:19:15.893Z,23.53
2022-08-18T17:21:42.292Z,23.53
2022-08-18T17:24:11.424Z,23.51
2022-08-18T17:26:56.712Z,23.51
2022-08-18T17:29:35.234Z,23.53
2022-08-18T17:32:08.047Z,23.50
2022-08-18T17:34:41.855Z,23.47
2022-08-18T17:37:10.843Z,23.41
2022-08-18T17:39:44.546Z,23.40
2022-08-18T17:42:25.876Z,23.37
2022-08-18T17:44:56.336Z,23.35
2022-08-18T17:47:29.114Z,23.31
2022-08-18T17:50:33.394Z,23.25
2022-08-18T17:53:07.419Z,23.25
2022-08-18T17:55:44.308Z,23.27
2022-08-18T17:59:04.114Z,23.27
2022-08-18T18:01:33.555Z,23.23
2022-08-18T18:04:00.281Z,23.24
2022-08-18T18:06:37.325Z,23.26
2022-08-18T18:09:28.872Z,23.26
2022-08-18T18:11:55.315Z,23.16
2022-08-18T18:14:25.161Z,23.08
2022-08-18T18:17:07.094Z,23.10
2022-08-18T18:19:34.738Z,23.06
2022-08-18T18:22:07.035Z,23.07
2022-08-18T18:24:36.955Z,23.07
2022-08-18T18:27:40.647Z,23.06
2022-08-18T18:30:07.326Z,22.99
2022-08-18T18:32:59.406Z,22.95
2022-08-18T18:35:29.102Z,22.92
2022-08-18T18:37:57.236Z,22.88
2022-08-18T18:40:36.903Z,22.85
2022-08-18T18:43:24.817Z,22.83
2022-08-18T18:46:04.951Z,22.78
2022-08-18T18:48:51.504Z,22.72
2022-08-18T18:51:32.654Z,22.62
2022-08-18T18:54:14.706Z,22.54
2022-08-18T18:56:49.169Z,22.49
2022-08-18T18:59:52.374Z,22.49
2022-08-18T19:02:40.163Z,22.45
2022-08-18T19:05:07.616Z,22.38
2022-08-18T19:07:50.799Z,22.37
2022-08-18T19:10:37.553Z,22.35
2022-08-18T19:13:12.376Z,22.30
2022-08-18T19:16:03.584Z,22.31
2022-08-18T19:18:43.141Z,22.32
2022-08-18T19:22:03.596Z,22.25
2022-08-18T19:24:21.115Z,22.20
2022-08-18T19:26:55.745Z,22.15
2022-08-18T19:29:29.266Z,22.13
2022-08-18T19:32:05.184Z,22.10
2022-08-18T19:34:51.190Z,22.09
2022-08-18T19:37:30.895Z,22.09
2022-08-18T19:40:07.824Z,22.00
2022-08-18T19:42:48.701Z,21.95
2022-08-18T19:45:30.219Z,21.92
2022-08-18T19:48:20.834Z,21.93
2022-08-18T19:50:57.121Z,21.98
2022-08-18T19:53:44.362Z,21.98
2022-08-18T19:56:17.780Z,21.96
2022-08-18T19:59:23.062Z,21.93
2022-08-18T20:01:52.096Z,21.88
2022-08-18T20:04:44.588Z,21.87
2022-08-18T20:07:54.810Z,21.81
2022-08-18T20:10:40.318Z,21.68
2022-08-18T20:13:35.236Z,21.66
2022-08-18T20:16:13.506Z,21.67
2022-08-18T20:18:49.323Z,21.68
2022-08-18T20:21:15.671Z,21.66
2022-08-18T20:24:36.370Z,21.67
2022-08-18T20:27:14.821Z,21.58
2022-08-18T20:29:46.085Z,21.56
2022-08-18T20:32:34.766Z,21.60
2022-08-18T20:35:24.835Z,21.50
2022-08-18T20:37:51.596Z,21.43
2022-08-18T20:40:38.438Z,21.47
2022-08-18T20:43:07.176Z,21.46
2022-08-18T20:45:35.361Z,21.45
2022-08-18T20:48:37.905Z,21.43
2022-08-18T20:51:14.979Z,21.38
2022-08-18T20:53:59.914Z,21.37
2022-08-18T20:56:44.261Z,21.35
2022-08-18T20:59:20.358Z,21.35
2022-08-18T21:02:08.543Z,21.37
2022-08-18T21:04:46.758Z,21.29
2022-08-18T21:07:37.260Z,21.29
2022-08-18T21:10:13.844Z,21.21
2022-08-18T21:12:52.389Z,21.09
2022-08-18T21:15:21.548Z,21.10
2022-08-18T21:17:57.621Z,21.12
2022-08-18T21:20:25.121Z,21.04
2022-08-18T21:23:05.005Z,21.05
2022-08-18T21:25:32.663Z,21.00
2022-08-18T21:28:02.240Z,20.93
2022-08-18T21:30:28.751Z,20.88
2022-08-18T21:32:55.213Z,20.83
2022-08-18T21:35:31.316Z,20.86
2022-08-18T21:38:06.977Z,20.83
2022-08-18T21:40:39.020Z,20.73
2022-08-18T21:43:11.063Z,20.66
2022-08-18T21:45:48.178Z,20.70
2022-08-18T21:48:15.145Z,20.69
2022-08-18T21:50:51.365Z,20.68
2022-08-18T21:53:23.857Z,20.65
2022-08-18T21:55:56.287Z,20.60
2022-08-18T21:58:33.606Z,20.57
2022-08-18T22:01:23.698Z,20.52
2022-08-18T22:03:59.644Z,20.43
2022-08-18T22:06:35.077Z,20.41
2022-08-18T22:09:33.026Z,20.38
2022-08-18T22:12:44.773Z,20.40
2022-08-18T22:15:22.276Z,20.37
2022-08-18T22:18:27.226Z,20.35
2022-08-18T22:20:58.732Z,20.28
2022-08-18T22:23:43.879Z,20.25
2022-08-18T22:26:16.540Z,20.23
2022-08-18T22:29:00.769Z,20.23
2022-08-18T22:31:35.555Z,20.16
2022-08-18T22:34:08.677Z,20.12
2022-08-18T22:36:39.224Z,20.14
2022-08-18T22:39:08.538Z,20.11
2022-08-18T22:41:36.043Z,20.09
2022-08-18T22:44:05.648Z,20.11
2022-08-18T22:46:33.881Z,20.02
2022-08-18T22:49:00.289Z,19.99
2022-08-18T22:51:28.745Z,19.96
2022-08-18T22:53:59.152Z,19.92
2022-08-18T22:56:34.988Z,19.94
2022-08-18T22:59:13.961Z,19.92
2022-08-18T23:01:46.227Z,19.92
2022-08-18T23:04:15.899Z,19.91
2022-08-18T23:06:48.544Z,19.88
2022-08-18T23:09:14.976Z,19.87
2022-08-18T23:11:41.457Z,19.79
2022-08-18T23:14:07.985Z,19.80
2022-08-18T23:16:34.430Z,19.72
2022-08-18T23:19:04.160Z,19.69
2022-08-18T23:21:34.133Z,19.64
2022-08-18T23:24:01.645Z,19.68
2022-08-18T23:26:29.543Z,19.63
2022-08-18T23:28:57.117Z,19.67
2022-08-18T23:31:23.550Z,19.64
2022-08-18T23:33:50.025Z,19.60
2022-08-18T23:36:17.731Z,19.51
2022-08-18T23:38:44.656Z,19.50
2022-08-18T23:41:12.790Z,19.51
2022-08-18T23:43:39.525Z,19.46
2022-08-18T23:46:14.452Z,19.41
2022-08-18T23:48:41.876Z,19.42
2022-08-18T23:51:08.646Z,19.45
2022-08-18T23:53:35.182Z,19.44
2022-08-18T23:56:01.561Z,19.41
2022-08-18T23:58:27.949Z,19.39
